地図

経路データ

SID SEASON NUMBER BASIN SUBBASIN NAME ISO_TIME NATURE LAT LON WMO_WIND WMO_PRES WMO_AGENCY TRACK_TYPE DIST2LAND LANDFALL IFLAG USA_AGENCY USA_ATCF_ID USA_LAT USA_LON USA_RECORD USA_STATUS USA_WIND USA_PRES USA_SSHS USA_R34_NE USA_R34_SE USA_R34_SW USA_R34_NW USA_R50_NE USA_R50_SE USA_R50_SW USA_R50_NW USA_R64_NE USA_R64_SE USA_R64_SW USA_R64_NW USA_POCI USA_ROCI USA_RMW USA_EYE TOKYO_LAT TOKYO_LON TOKYO_GRADE TOKYO_WIND TOKYO_PRES TOKYO_R50_DIR TOKYO_R50_LONG TOKYO_R50_SHORT TOKYO_R30_DIR TOKYO_R30_LONG TOKYO_R30_SHORT TOKYO_LAND CMA_LAT CMA_LON CMA_CAT CMA_WIND CMA_PRES HKO_LAT HKO_LON HKO_CAT HKO_WIND HKO_PRES NEWDELHI_LAT NEWDELHI_LON NEWDELHI_GRADE NEWDELHI_WIND NEWDELHI_PRES NEWDELHI_CI NEWDELHI_DP NEWDELHI_POCI REUNION_LAT REUNION_LON REUNION_TYPE REUNION_WIND REUNION_PRES REUNION_TNUM REUNION_CI REUNION_RMW REUNION_R34_NE REUNION_R34_SE REUNION_R34_SW REUNION_R34_NW REUNION_R50_NE REUNION_R50_SE REUNION_R50_SW REUNION_R50_NW REUNION_R64_NE REUNION_R64_SE REUNION_R64_SW REUNION_R64_NW BOM_LAT BOM_LON BOM_TYPE BOM_WIND BOM_PRES BOM_TNUM BOM_CI BOM_RMW BOM_R34_NE BOM_R34_SE BOM_R34_SW BOM_R34_NW BOM_R50_NE BOM_R50_SE BOM_R50_SW BOM_R50_NW BOM_R64_NE BOM_R64_SE BOM_R64_SW BOM_R64_NW BOM_ROCI BOM_POCI BOM_EYE BOM_POS_METHOD BOM_PRES_METHOD NADI_LAT NADI_LON NADI_CAT NADI_WIND NADI_PRES WELLINGTON_LAT WELLINGTON_LON WELLINGTON_WIND WELLINGTON_PRES DS824_LAT DS824_LON DS824_STAGE DS824_WIND DS824_PRES TD9636_LAT TD9636_LON TD9636_STAGE TD9636_WIND TD9636_PRES TD9635_LAT TD9635_LON TD9635_WIND TD9635_PRES TD9635_ROCI NEUMANN_LAT NEUMANN_LON NEUMANN_CLASS NEUMANN_WIND NEUMANN_PRES MLC_LAT MLC_LON MLC_CLASS MLC_WIND MLC_PRES USA_GUST BOM_GUST BOM_GUST_PER REUNION_GUST REUNION_GUST_PER USA_SEAHGT USA_SEARAD_NE USA_SEARAD_SE USA_SEARAD_SW USA_SEARAD_NW STORM_SPEED STORM_DIR
1937248N21088 1937 40 NI BB NOT_NAMED 1937-09-05 00:00:00 TS 21.1000 87.7000 main 63 35 _________O____ -1 21.1000 87.7000 TC 30 6 314
1937248N21088 1937 40 NI BB NOT_NAMED 1937-09-05 03:00:00 TS 21.3051 87.4735 main 35 0 _________PO___ -1 21.4076 87.3603 TC 30 21.1000 87.7000 1 7 312
1937248N21088 1937 40 NI BB NOT_NAMED 1937-09-05 06:00:00 TS 21.5796 87.1336 main 0 0 _________OP___ -1 21.7000 87.0000 TC 30 21.3991 87.3341 1 9 309
1937248N21088 1937 40 NI BB NOT_NAMED 1937-09-05 09:00:00 TS 21.8463 86.7602 main 0 0 _________PP___ -1 21.9650 86.6074 TC 30 21.6882 86.9639 1 9 306
1937248N21088 1937 40 NI BB NOT_NAMED 1937-09-05 12:00:00 TS 22.0791 86.3934 main 0 0 _________OP___ -1 22.2000 86.2000 TC 30 21.9582 86.5868 1 8 303
1937248N21088 1937 40 NI BB NOT_NAMED 1937-09-05 15:00:00 TS 22.3074 86.0037 main 0 0 _________PO___ -1 22.4148 85.8074 TC 30 22.2000 86.2000 1 8 300
1937248N21088 1937 40 NI BB NOT_NAMED 1937-09-05 18:00:00 TS 22.5037 85.6005 main 0 0 _________OP___ -1 22.6000 85.4000 TC 30 22.4074 85.8009 1 8 295
1937248N21088 1937 40 NI BB NOT_NAMED 1937-09-05 21:00:00 TS 22.6721 85.1758 main 0 0 _________PP___ -1 22.7574 84.9648 TC 30 22.5869 85.3867 1 9 292
1937248N21088 1937 40 NI BB NOT_NAMED 1937-09-06 00:00:00 TS 22.8240 84.7270 main 0 0 _________OP___ -1 22.9000 84.5000 TC 30 22.7479 84.9541 1 9 290
1937248N21088 1937 40 NI BB NOT_NAMED 1937-09-06 03:00:00 TS 22.9750 84.2537 main 0 0 _________PO___ -1 23.0499 84.0074 TC 30 22.9000 84.5000 1 9 289
1937248N21088 1937 40 NI BB NOT_NAMED 1937-09-06 06:00:00 TS 23.1324 83.7688 main 0 0 _________OP___ -1 23.2000 83.5000 TC 30 23.0648 84.0376 1 9 289
1937248N21088 1937 40 NI BB NOT_NAMED 1937-09-06 09:00:00 TS 23.2894 83.2836 main 0 0 _________PP___ -1 23.3572 83.0149 TC 30 23.2217 83.5522 1 10 288
1937248N21088 1937 40 NI BB NOT_NAMED 1937-09-06 12:00:00 TS 23.4339 82.7704 main 0 0 _________OP___ -1 23.5000 82.5000 TC 30 23.3677 83.0407 1 10 285
1937248N21088 1937 40 NI BB NOT_NAMED 1937-09-06 15:00:00 TS 23.5537 82.2074 main 0 0 _________PO___ -1 23.6074 81.9148 TC 30 23.5000 82.5000 1 11 282
1937248N21088 1937 40 NI BB NOT_NAMED 1937-09-06 18:00:00 TS 23.6637 81.5901 main 0 0 _________OP___ -1 23.7000 81.3000 TC 30 23.6275 81.8802 1 12 281
1937248N21088 1937 40 NI BB NOT_NAMED 1937-09-06 21:00:00 TS 23.7771 80.9477 main 0 0 _________PP___ -1 23.8152 80.6552 TC 30 23.7389 81.2403 1 11 280
1937248N21088 1937 40 NI BB NOT_NAMED 1937-09-07 00:00:00 TS 23.8654 80.3651 main 0 0 _________OP___ -1 23.9000 80.1000 TC 30 23.8307 80.6302 1 9 278
1937248N21088 1937 40 NI BB NOT_NAMED 1937-09-07 03:00:00 TS 23.9035 79.9274 main 0 0 _________PO___ -1 23.9071 79.7548 TC 30 23.9000 80.1000 1 7 274
1937248N21088 1937 40 NI BB NOT_NAMED 1937-09-07 06:00:00 TS 23.9185 79.6086 main 0 0 _________OP___ -1 23.9000 79.5000 TC 30 23.9370 79.7172 1 6 275
1937248N21088 1937 40 NI BB NOT_NAMED 1937-09-07 09:00:00 TS 23.9491 79.3121 main 0 0 _________PP___ -1 23.9424 79.2075 TC 30 23.9557 79.4167 1 5 277
1937248N21088 1937 40 NI BB NOT_NAMED 1937-09-07 12:00:00 TS 23.9858 79.0289 main 0 0 _________OP___ -1 24.0000 78.9000 TC 30 23.9717 79.1579 1 5 278
1937248N21088 1937 40 NI BB NOT_NAMED 1937-09-07 15:00:00 TS 24.0213 78.7250 main 0 0 _________PO___ -1 24.0425 78.5499 TC 30 24.0000 78.9000 1 5 279
1937248N21088 1937 40 NI BB NOT_NAMED 1937-09-07 18:00:00 TS 24.0725 78.4346 main 0 0 _________OP___ -1 24.1000 78.2000 TC 30 24.0519 78.6105 1 6 283
1937248N21088 1937 40 NI BB NOT_NAMED 1937-09-07 21:00:00 TS 24.1503 78.1295 main 0 0 _________PP___ -1 24.1900 77.8876 TC 30 24.1238 78.2908 1 6 287
1937248N21088 1937 40 NI AS NOT_NAMED 1937-09-08 00:00:00 TS 24.2393 77.8338 main 0 0 _________OP___ -1 24.3000 77.6000 TC 30 24.2089 77.9506 1 5 287
1937248N21088 1937 40 NI AS NOT_NAMED 1937-09-08 03:00:00 NR 24.3000 77.6000 main 0 __________O___ -1 TC 24.3000 77.6000 1 4 286

IBTrACS Databaseについて

本データベースは、米国NOAAが公開する1842年以降の世界の熱帯低気圧のベストトラックデータアーカイブInternational Best Track Archive for Climate Stewardship (IBTrACS)を、ウェブで閲覧しやすい形式に変換したものです。

最終更新日:2021-10-19